sensor_id;sensor_type;location;lat;lon;timestamp;temperature;humidity
23323;DHT22;11833;52.554;13.554;2023-05-14T00:01:18;15.60;73.00
23323;DHT22;11833;52.554;13.554;2023-05-14T00:03:44;15.60;73.20
23323;DHT22;11833;52.554;13.554;2023-05-14T00:06:10;15.50;72.50
23323;DHT22;11833;52.554;13.554;2023-05-14T00:08:36;15.50;73.50
23323;DHT22;11833;52.554;13.554;2023-05-14T00:11:01;15.60;73.30
23323;DHT22;11833;52.554;13.554;2023-05-14T00:13:27;15.60;73.50
23323;DHT22;11833;52.554;13.554;2023-05-14T00:15:53;15.60;73.50
23323;DHT22;11833;52.554;13.554;2023-05-14T00:18:19;15.50;73.80
23323;DHT22;11833;52.554;13.554;2023-05-14T00:20:44;15.50;73.40
23323;DHT22;11833;52.554;13.554;2023-05-14T00:23:10;15.50;73.80
23323;DHT22;11833;52.554;13.554;2023-05-14T00:25:36;15.40;73.20
23323;DHT22;11833;52.554;13.554;2023-05-14T00:28:02;15.50;74.10
23323;DHT22;11833;52.554;13.554;2023-05-14T00:30:28;15.50;73.80
23323;DHT22;11833;52.554;13.554;2023-05-14T00:32:54;15.50;74.10
23323;DHT22;11833;52.554;13.554;2023-05-14T00:35:20;15.50;74.00
23323;DHT22;11833;52.554;13.554;2023-05-14T00:37:46;15.40;74.10
23323;DHT22;11833;52.554;13.554;2023-05-14T00:40:12;15.40;75.00
23323;DHT22;11833;52.554;13.554;2023-05-14T00:42:39;15.40;74.40
23323;DHT22;11833;52.554;13.554;2023-05-14T00:45:06;15.30;74.40
23323;DHT22;11833;52.554;13.554;2023-05-14T00:47:32;15.30;74.70
23323;DHT22;11833;52.554;13.554;2023-05-14T00:50:02;15.30;75.40
23323;DHT22;11833;52.554;13.554;2023-05-14T00:52:28;15.30;75.90
23323;DHT22;11833;52.554;13.554;2023-05-14T00:54:54;15.30;75.00
23323;DHT22;11833;52.554;13.554;2023-05-14T00:57:21;15.20;74.30
23323;DHT22;11833;52.554;13.554;2023-05-14T00:59:47;15.20;74.90
23323;DHT22;11833;52.554;13.554;2023-05-14T01:02:12;15.20;74.40
23323;DHT22;11833;52.554;13.554;2023-05-14T01:04:38;15.10;74.90
23323;DHT22;11833;52.554;13.554;2023-05-14T01:10:02;15.10;75.60
23323;DHT22;11833;52.554;13.554;2023-05-14T01:12:55;15.10;74.80
23323;DHT22;11833;52.554;13.554;2023-05-14T01:15:30;15.00;74.10
23323;DHT22;11833;52.554;13.554;2023-05-14T01:18:07;15.10;75.40
23323;DHT22;11833;52.554;13.554;2023-05-14T01:20:34;15.20;74.60
23323;DHT22;11833;52.554;13.554;2023-05-14T01:23:01;15.10;73.30
23323;DHT22;11833;52.554;13.554;2023-05-14T01:25:29;15.10;75.00
23323;DHT22;11833;52.554;13.554;2023-05-14T01:28:15;15.10;73.00
23323;DHT22;11833;52.554;13.554;2023-05-14T01:33:15;15.20;74.30
23323;DHT22;11833;52.554;13.554;2023-05-14T01:35:43;15.20;72.70
23323;DHT22;11833;52.554;13.554;2023-05-14T01:38:12;15.10;72.70
23323;DHT22;11833;52.554;13.554;2023-05-14T01:40:38;15.10;72.90
23323;DHT22;11833;52.554;13.554;2023-05-14T01:43:05;15.00;72.90
23323;DHT22;11833;52.554;13.554;2023-05-14T01:45:34;15.00;74.00
23323;DHT22;11833;52.554;13.554;2023-05-14T01:48:00;15.00;73.00
23323;DHT22;11833;52.554;13.554;2023-05-14T01:50:25;15.00;73.40
23323;DHT22;11833;52.554;13.554;2023-05-14T01:52:51;15.00;73.70
23323;DHT22;11833;52.554;13.554;2023-05-14T01:55:21;15.00;72.00
23323;DHT22;11833;52.554;13.554;2023-05-14T01:57:51;15.00;73.10
23323;DHT22;11833;52.554;13.554;2023-05-14T02:00:18;15.10;73.90
23323;DHT22;11833;52.554;13.554;2023-05-14T02:02:44;15.10;73.40
23323;DHT22;11833;52.554;13.554;2023-05-14T02:05:10;15.10;71.70
23323;DHT22;11833;52.554;13.554;2023-05-14T02:07:37;15.10;72.10
23323;DHT22;11833;52.554;13.554;2023-05-14T02:10:03;15.10;72.40
23323;DHT22;11833;52.554;13.554;2023-05-14T02:12:29;15.00;71.20
23323;DHT22;11833;52.554;13.554;2023-05-14T02:14:54;15.00;69.90
23323;DHT22;11833;52.554;13.554;2023-05-14T02:17:20;15.10;71.40
23323;DHT22;11833;52.554;13.554;2023-05-14T02:19:46;15.20;70.80
23323;DHT22;11833;52.554;13.554;2023-05-14T02:22:12;15.20;69.90
23323;DHT22;11833;52.554;13.554;2023-05-14T02:24:38;15.20;70.90
23323;DHT22;11833;52.554;13.554;2023-05-14T02:27:04;15.20;70.40
23323;DHT22;11833;52.554;13.554;2023-05-14T02:29:30;15.20;69.00
23323;DHT22;11833;52.554;13.554;2023-05-14T02:31:56;15.10;68.00
23323;DHT22;11833;52.554;13.554;2023-05-14T02:34:22;15.10;67.60
23323;DHT22;11833;52.554;13.554;2023-05-14T02:36:48;15.10;68.80
23323;DHT22;11833;52.554;13.554;2023-05-14T02:39:13;15.10;69.30
23323;DHT22;11833;52.554;13.554;2023-05-14T02:41:39;15.10;68.80
23323;DHT22;11833;52.554;13.554;2023-05-14T02:44:05;15.10;70.10
23323;DHT22;11833;52.554;13.554;2023-05-14T02:46:31;15.10;69.90
23323;DHT22;11833;52.554;13.554;2023-05-14T02:48:57;15.10;69.30
23323;DHT22;11833;52.554;13.554;2023-05-14T02:51:23;15.10;69.60
23323;DHT22;11833;52.554;13.554;2023-05-14T02:53:49;15.20;69.80
23323;DHT22;11833;52.554;13.554;2023-05-14T02:56:15;15.30;70.00
23323;DHT22;11833;52.554;13.554;2023-05-14T02:58:41;15.30;70.10
23323;DHT22;11833;52.554;13.554;2023-05-14T03:01:06;15.30;67.70
23323;DHT22;11833;52.554;13.554;2023-05-14T03:03:33;15.30;68.80
23323;DHT22;11833;52.554;13.554;2023-05-14T03:05:59;15.30;69.10
23323;DHT22;11833;52.554;13.554;2023-05-14T03:08:25;15.30;69.50
23323;DHT22;11833;52.554;13.554;2023-05-14T03:10:50;15.40;70.00
23323;DHT22;11833;52.554;13.554;2023-05-14T03:13:16;15.30;69.60
23323;DHT22;11833;52.554;13.554;2023-05-14T03:15:44;15.30;68.80
23323;DHT22;11833;52.554;13.554;2023-05-14T03:18:11;15.30;69.00
23323;DHT22;11833;52.554;13.554;2023-05-14T03:20:37;15.30;69.70
23323;DHT22;11833;52.554;13.554;2023-05-14T03:23:03;15.30;69.40
23323;DHT22;11833;52.554;13.554;2023-05-14T03:25:29;15.20;68.00
23323;DHT22;11833;52.554;13.554;2023-05-14T03:27:55;15.30;68.70
23323;DHT22;11833;52.554;13.554;2023-05-14T03:30:21;15.30;68.30
23323;DHT22;11833;52.554;13.554;2023-05-14T03:32:47;15.30;69.00
23323;DHT22;11833;52.554;13.554;2023-05-14T03:35:12;15.30;68.60
23323;DHT22;11833;52.554;13.554;2023-05-14T03:37:38;15.40;69.30
23323;DHT22;11833;52.554;13.554;2023-05-14T03:40:04;15.40;67.30
23323;DHT22;11833;52.554;13.554;2023-05-14T03:42:31;15.40;67.80
23323;DHT22;11833;52.554;13.554;2023-05-14T03:44:56;15.30;67.10
23323;DHT22;11833;52.554;13.554;2023-05-14T03:47:22;15.20;67.00
23323;DHT22;11833;52.554;13.554;2023-05-14T03:49:48;15.20;66.00
23323;DHT22;11833;52.554;13.554;2023-05-14T03:52:14;15.20;68.10
23323;DHT22;11833;52.554;13.554;2023-05-14T03:54:40;15.30;67.90
23323;DHT22;11833;52.554;13.554;2023-05-14T03:57:06;15.40;67.50
23323;DHT22;11833;52.554;13.554;2023-05-14T03:59:31;15.50;68.00
23323;DHT22;11833;52.554;13.554;2023-05-14T04:01:57;15.50;68.00
23323;DHT22;11833;52.554;13.554;2023-05-14T04:04:23;15.50;68.30
23323;DHT22;11833;52.554;13.554;2023-05-14T04:06:48;15.40;66.20
23323;DHT22;11833;52.554;13.554;2023-05-14T04:09:14;15.40;66.80
23323;DHT22;11833;52.554;13.554;2023-05-14T04:11:40;15.40;67.00
23323;DHT22;11833;52.554;13.554;2023-05-14T04:14:06;15.30;67.00
23323;DHT22;11833;52.554;13.554;2023-05-14T04:16:32;15.20;66.80
23323;DHT22;11833;52.554;13.554;2023-05-14T04:18:59;15.20;66.50
23323;DHT22;11833;52.554;13.554;2023-05-14T04:21:26;15.20;66.40
23323;DHT22;11833;52.554;13.554;2023-05-14T04:23:52;15.20;66.20
23323;DHT22;11833;52.554;13.554;2023-05-14T04:26:18;15.20;67.40
23323;DHT22;11833;52.554;13.554;2023-05-14T04:28:44;15.20;67.40
23323;DHT22;11833;52.554;13.554;2023-05-14T04:31:10;15.20;66.80
23323;DHT22;11833;52.554;13.554;2023-05-14T04:33:36;15.20;66.30
23323;DHT22;11833;52.554;13.554;2023-05-14T04:36:02;15.10;66.90
23323;DHT22;11833;52.554;13.554;2023-05-14T04:38:29;15.10;67.30
23323;DHT22;11833;52.554;13.554;2023-05-14T04:40:56;15.20;66.50
23323;DHT22;11833;52.554;13.554;2023-05-14T04:43:22;15.20;66.60
23323;DHT22;11833;52.554;13.554;2023-05-14T04:45:48;15.20;66.90
23323;DHT22;11833;52.554;13.554;2023-05-14T04:48:15;15.20;66.70
23323;DHT22;11833;52.554;13.554;2023-05-14T04:50:41;15.20;66.40
23323;DHT22;11833;52.554;13.554;2023-05-14T04:53:08;15.20;66.00
23323;DHT22;11833;52.554;13.554;2023-05-14T04:55:35;15.30;65.80
23323;DHT22;11833;52.554;13.554;2023-05-14T04:58:00;15.20;66.10
23323;DHT22;11833;52.554;13.554;2023-05-14T05:00:27;15.20;66.40
23323;DHT22;11833;52.554;13.554;2023-05-14T05:02:53;15.20;66.30
23323;DHT22;11833;52.554;13.554;2023-05-14T05:05:19;15.30;66.40
23323;DHT22;11833;52.554;13.554;2023-05-14T05:07:45;15.30;66.50
23323;DHT22;11833;52.554;13.554;2023-05-14T05:10:11;15.40;65.90
23323;DHT22;11833;52.554;13.554;2023-05-14T05:12:37;15.30;67.00
23323;DHT22;11833;52.554;13.554;2023-05-14T05:15:03;15.30;66.70
23323;DHT22;11833;52.554;13.554;2023-05-14T05:17:30;15.30;66.40
23323;DHT22;11833;52.554;13.554;2023-05-14T05:19:55;15.40;66.90
23323;DHT22;11833;52.554;13.554;2023-05-14T05:22:22;15.40;67.30
23323;DHT22;11833;52.554;13.554;2023-05-14T05:24:48;15.50;66.50
23323;DHT22;11833;52.554;13.554;2023-05-14T05:27:13;15.60;67.10
23323;DHT22;11833;52.554;13.554;2023-05-14T05:29:39;15.70;66.70
23323;DHT22;11833;52.554;13.554;2023-05-14T05:32:06;15.70;65.80
23323;DHT22;11833;52.554;13.554;2023-05-14T05:34:31;15.80;66.00
23323;DHT22;11833;52.554;13.554;2023-05-14T05:36:57;15.80;66.80
23323;DHT22;11833;52.554;13.554;2023-05-14T05:39:23;15.90;65.60
23323;DHT22;11833;52.554;13.554;2023-05-14T05:41:49;15.80;66.10
23323;DHT22;11833;52.554;13.554;2023-05-14T05:44:15;15.80;65.50
23323;DHT22;11833;52.554;13.554;2023-05-14T05:46:40;15.90;66.20
23323;DHT22;11833;52.554;13.554;2023-05-14T05:49:06;15.90;65.90
23323;DHT22;11833;52.554;13.554;2023-05-14T05:51:32;16.00;65.40
23323;DHT22;11833;52.554;13.554;2023-05-14T05:53:58;16.10;65.30
23323;DHT22;11833;52.554;13.554;2023-05-14T05:56:23;16.20;65.80
23323;DHT22;11833;52.554;13.554;2023-05-14T05:58:49;16.30;65.20
23323;DHT22;11833;52.554;13.554;2023-05-14T06:01:15;16.40;64.70
23323;DHT22;11833;52.554;13.554;2023-05-14T06:03:40;16.40;65.00
23323;DHT22;11833;52.554;13.554;2023-05-14T06:06:06;16.60;64.30
23323;DHT22;11833;52.554;13.554;2023-05-14T06:08:32;16.60;64.50
23323;DHT22;11833;52.554;13.554;2023-05-14T06:10:58;16.70;64.10
23323;DHT22;11833;52.554;13.554;2023-05-14T06:13:24;16.70;63.50
23323;DHT22;11833;52.554;13.554;2023-05-14T06:15:49;16.70;64.50
23323;DHT22;11833;52.554;13.554;2023-05-14T06:18:15;16.80;64.50
23323;DHT22;11833;52.554;13.554;2023-05-14T06:20:41;16.80;64.20
23323;DHT22;11833;52.554;13.554;2023-05-14T06:23:07;16.80;64.40
23323;DHT22;11833;52.554;13.554;2023-05-14T06:25:33;16.80;63.30
23323;DHT22;11833;52.554;13.554;2023-05-14T06:27:59;16.90;63.20
23323;DHT22;11833;52.554;13.554;2023-05-14T06:30:25;16.90;64.00
23323;DHT22;11833;52.554;13.554;2023-05-14T06:32:50;16.90;63.80
23323;DHT22;11833;52.554;13.554;2023-05-14T06:35:17;17.00;63.10
23323;DHT22;11833;52.554;13.554;2023-05-14T06:37:44;17.10;62.90
23323;DHT22;11833;52.554;13.554;2023-05-14T06:40:10;17.20;62.90
23323;DHT22;11833;52.554;13.554;2023-05-14T06:42:37;17.20;62.80
23323;DHT22;11833;52.554;13.554;2023-05-14T06:45:03;17.40;62.90
23323;DHT22;11833;52.554;13.554;2023-05-14T06:47:30;17.40;62.50
23323;DHT22;11833;52.554;13.554;2023-05-14T06:49:56;17.50;62.60
23323;DHT22;11833;52.554;13.554;2023-05-14T06:52:23;17.50;61.80
23323;DHT22;11833;52.554;13.554;2023-05-14T06:54:49;17.50;61.70
23323;DHT22;11833;52.554;13.554;2023-05-14T06:57:15;17.50;61.90
23323;DHT22;11833;52.554;13.554;2023-05-14T06:59:41;17.60;61.40
23323;DHT22;11833;52.554;13.554;2023-05-14T07:02:07;17.60;61.40
23323;DHT22;11833;52.554;13.554;2023-05-14T07:04:32;17.70;61.40
23323;DHT22;11833;52.554;13.554;2023-05-14T07:06:58;17.80;61.60
23323;DHT22;11833;52.554;13.554;2023-05-14T07:09:24;17.90;61.60
23323;DHT22;11833;52.554;13.554;2023-05-14T07:11:50;18.00;61.80
23323;DHT22;11833;52.554;13.554;2023-05-14T07:14:15;18.10;61.80
23323;DHT22;11833;52.554;13.554;2023-05-14T07:16:41;18.10;62.30
23323;DHT22;11833;52.554;13.554;2023-05-14T07:19:07;18.10;61.80
23323;DHT22;11833;52.554;13.554;2023-05-14T07:21:34;18.20;60.40
23323;DHT22;11833;52.554;13.554;2023-05-14T07:24:00;18.30;61.70
23323;DHT22;11833;52.554;13.554;2023-05-14T07:26:26;18.40;61.40
23323;DHT22;11833;52.554;13.554;2023-05-14T07:28:52;18.50;60.80
23323;DHT22;11833;52.554;13.554;2023-05-14T07:31:17;18.60;60.40
23323;DHT22;11833;52.554;13.554;2023-05-14T07:33:43;18.70;61.70
23323;DHT22;11833;52.554;13.554;2023-05-14T07:36:09;18.90;61.00
23323;DHT22;11833;52.554;13.554;2023-05-14T07:38:35;19.00;61.20
23323;DHT22;11833;52.554;13.554;2023-05-14T07:41:01;19.10;61.10
23323;DHT22;11833;52.554;13.554;2023-05-14T07:43:27;19.20;60.10
23323;DHT22;11833;52.554;13.554;2023-05-14T07:45:53;19.30;60.00
23323;DHT22;11833;52.554;13.554;2023-05-14T07:48:19;19.40;58.30
23323;DHT22;11833;52.554;13.554;2023-05-14T07:50:47;19.50;58.90
23323;DHT22;11833;52.554;13.554;2023-05-14T07:53:13;19.60;58.60
23323;DHT22;11833;52.554;13.554;2023-05-14T07:55:39;19.70;58.20
23323;DHT22;11833;52.554;13.554;2023-05-14T07:58:06;19.90;58.40
23323;DHT22;11833;52.554;13.554;2023-05-14T08:00:32;19.90;57.10
23323;DHT22;11833;52.554;13.554;2023-05-14T08:02:57;20.00;56.90
23323;DHT22;11833;52.554;13.554;2023-05-14T08:05:23;20.00;55.50
23323;DHT22;11833;52.554;13.554;2023-05-14T08:07:49;20.10;55.60
23323;DHT22;11833;52.554;13.554;2023-05-14T08:10:15;20.20;56.40
23323;DHT22;11833;52.554;13.554;2023-05-14T08:12:41;20.30;55.50
23323;DHT22;11833;52.554;13.554;2023-05-14T08:15:07;20.40;55.00
23323;DHT22;11833;52.554;13.554;2023-05-14T08:17:33;20.50;55.30
23323;DHT22;11833;52.554;13.554;2023-05-14T08:19:59;20.50;54.40
23323;DHT22;11833;52.554;13.554;2023-05-14T08:22:26;20.60;54.90
23323;DHT22;11833;52.554;13.554;2023-05-14T08:24:51;20.70;54.20
23323;DHT22;11833;52.554;13.554;2023-05-14T08:27:17;20.70;53.90
23323;DHT22;11833;52.554;13.554;2023-05-14T08:29:43;20.80;54.50
23323;DHT22;11833;52.554;13.554;2023-05-14T08:32:09;20.90;54.20
23323;DHT22;11833;52.554;13.554;2023-05-14T08:34:34;21.00;52.50
23323;DHT22;11833;52.554;13.554;2023-05-14T08:37:00;21.10;52.70
23323;DHT22;11833;52.554;13.554;2023-05-14T08:39:26;21.20;52.70
23323;DHT22;11833;52.554;13.554;2023-05-14T08:41:52;21.30;51.50
23323;DHT22;11833;52.554;13.554;2023-05-14T08:44:59;21.30;52.00
23323;DHT22;11833;52.554;13.554;2023-05-14T08:47:25;21.40;51.20
23323;DHT22;11833;52.554;13.554;2023-05-14T08:50:01;21.40;50.70
23323;DHT22;11833;52.554;13.554;2023-05-14T08:52:32;21.50;50.40
23323;DHT22;11833;52.554;13.554;2023-05-14T08:55:01;21.60;51.00
23323;DHT22;11833;52.554;13.554;2023-05-14T08:57:29;21.70;49.40
23323;DHT22;11833;52.554;13.554;2023-05-14T08:59:56;21.90;50.90
23323;DHT22;11833;52.554;13.554;2023-05-14T09:02:26;22.10;50.00
23323;DHT22;11833;52.554;13.554;2023-05-14T09:04:58;22.20;49.70
23323;DHT22;11833;52.554;13.554;2023-05-14T09:07:25;22.30;48.20
23323;DHT22;11833;52.554;13.554;2023-05-14T09:09:51;22.40;48.90
23323;DHT22;11833;52.554;13.554;2023-05-14T09:12:18;22.50;47.80
23323;DHT22;11833;52.554;13.554;2023-05-14T09:14:45;22.70;47.40
23323;DHT22;11833;52.554;13.554;2023-05-14T09:17:12;23.30;47.70
23323;DHT22;11833;52.554;13.554;2023-05-14T09:19:42;23.80;47.10
23323;DHT22;11833;52.554;13.554;2023-05-14T09:22:11;24.00;45.10
23323;DHT22;11833;52.554;13.554;2023-05-14T09:24:38;24.50;45.00
23323;DHT22;11833;52.554;13.554;2023-05-14T09:27:05;25.20;44.20
23323;DHT22;11833;52.554;13.554;2023-05-14T09:29:32;25.70;42.80
23323;DHT22;11833;52.554;13.554;2023-05-14T09:31:59;25.90;42.00
23323;DHT22;11833;52.554;13.554;2023-05-14T09:34:33;26.40;41.80
23323;DHT22;11833;52.554;13.554;2023-05-14T09:37:06;26.70;41.00
23323;DHT22;11833;52.554;13.554;2023-05-14T09:39:34;26.40;41.50
23323;DHT22;11833;52.554;13.554;2023-05-14T09:42:01;25.50;42.20
23323;DHT22;11833;52.554;13.554;2023-05-14T09:44:27;24.60;43.90
23323;DHT22;11833;52.554;13.554;2023-05-14T09:46:54;24.20;44.80
23323;DHT22;11833;52.554;13.554;2023-05-14T09:49:20;23.80;45.30
23323;DHT22;11833;52.554;13.554;2023-05-14T09:51:47;23.60;47.10
23323;DHT22;11833;52.554;13.554;2023-05-14T09:54:14;23.60;46.60
23323;DHT22;11833;52.554;13.554;2023-05-14T09:56:40;23.40;46.60
23323;DHT22;11833;52.554;13.554;2023-05-14T09:59:05;23.60;46.70
23323;DHT22;11833;52.554;13.554;2023-05-14T10:01:31;23.70;45.40
23323;DHT22;11833;52.554;13.554;2023-05-14T10:03:58;23.90;45.70
23323;DHT22;11833;52.554;13.554;2023-05-14T10:06:30;24.00;45.90
23323;DHT22;11833;52.554;13.554;2023-05-14T10:09:04;24.10;43.50
23323;DHT22;11833;52.554;13.554;2023-05-14T10:11:33;23.90;42.80
23323;DHT22;11833;52.554;13.554;2023-05-14T10:14:07;23.80;43.80
23323;DHT22;11833;52.554;13.554;2023-05-14T10:16:39;23.70;44.90
23323;DHT22;11833;52.554;13.554;2023-05-14T10:19:09;23.80;43.50
23323;DHT22;11833;52.554;13.554;2023-05-14T10:21:39;23.70;46.10
23323;DHT22;11833;52.554;13.554;2023-05-14T10:24:06;23.60;43.70
23323;DHT22;11833;52.554;13.554;2023-05-14T10:26:35;23.50;44.90
23323;DHT22;11833;52.554;13.554;2023-05-14T10:29:05;23.70;44.90
23323;DHT22;11833;52.554;13.554;2023-05-14T10:31:52;23.80;45.30
23323;DHT22;11833;52.554;13.554;2023-05-14T10:34:39;23.90;46.00
23323;DHT22;11833;52.554;13.554;2023-05-14T10:37:25;24.00;43.80
23323;DHT22;11833;52.554;13.554;2023-05-14T10:40:04;23.80;43.10
23323;DHT22;11833;52.554;13.554;2023-05-14T10:42:35;23.80;44.40
23323;DHT22;11833;52.554;13.554;2023-05-14T10:45:17;23.90;44.70
23323;DHT22;11833;52.554;13.554;2023-05-14T10:47:46;24.00;45.40
23323;DHT22;11833;52.554;13.554;2023-05-14T10:50:16;23.80;44.00
23323;DHT22;11833;52.554;13.554;2023-05-14T10:52:43;23.50;43.10
23323;DHT22;11833;52.554;13.554;2023-05-14T10:55:13;23.30;44.00
23323;DHT22;11833;52.554;13.554;2023-05-14T10:57:42;23.10;42.90
23323;DHT22;11833;52.554;13.554;2023-05-14T11:00:12;22.90;44.70
23323;DHT22;11833;52.554;13.554;2023-05-14T11:02:43;22.60;43.80
23323;DHT22;11833;52.554;13.554;2023-05-14T11:05:11;22.50;43.80
23323;DHT22;11833;52.554;13.554;2023-05-14T11:07:46;22.40;46.00
23323;DHT22;11833;52.554;13.554;2023-05-14T11:10:15;22.30;45.10
23323;DHT22;11833;52.554;13.554;2023-05-14T11:12:49;22.20;44.90
23323;DHT22;11833;52.554;13.554;2023-05-14T11:15:20;22.10;44.60
23323;DHT22;11833;52.554;13.554;2023-05-14T11:17:48;22.20;45.10
23323;DHT22;11833;52.554;13.554;2023-05-14T11:20:15;22.20;44.70
23323;DHT22;11833;52.554;13.554;2023-05-14T11:22:41;22.20;45.00
23323;DHT22;11833;52.554;13.554;2023-05-14T11:25:08;22.20;43.90
23323;DHT22;11833;52.554;13.554;2023-05-14T11:27:39;22.20;45.50
23323;DHT22;11833;52.554;13.554;2023-05-14T11:30:19;22.20;45.60
23323;DHT22;11833;52.554;13.554;2023-05-14T11:32:47;22.20;46.00
23323;DHT22;11833;52.554;13.554;2023-05-14T11:35:14;22.20;44.90
23323;DHT22;11833;52.554;13.554;2023-05-14T11:37:41;22.20;45.50
23323;DHT22;11833;52.554;13.554;2023-05-14T11:40:13;22.20;45.80
23323;DHT22;11833;52.554;13.554;2023-05-14T11:42:40;22.20;45.30
23323;DHT22;11833;52.554;13.554;2023-05-14T11:45:10;22.20;45.60
23323;DHT22;11833;52.554;13.554;2023-05-14T11:47:37;22.20;46.30
23323;DHT22;11833;52.554;13.554;2023-05-14T11:50:03;22.20;46.10
23323;DHT22;11833;52.554;13.554;2023-05-14T11:52:28;22.20;45.40
23323;DHT22;11833;52.554;13.554;2023-05-14T11:54:54;21.90;46.80
23323;DHT22;11833;52.554;13.554;2023-05-14T11:57:21;21.90;47.20
23323;DHT22;11833;52.554;13.554;2023-05-14T11:59:48;21.90;48.40
23323;DHT22;11833;52.554;13.554;2023-05-14T12:02:21;21.70;49.20
23323;DHT22;11833;52.554;13.554;2023-05-14T12:04:50;21.80;50.00
23323;DHT22;11833;52.554;13.554;2023-05-14T12:07:16;21.80;50.10
23323;DHT22;11833;52.554;13.554;2023-05-14T12:09:45;21.80;50.30
23323;DHT22;11833;52.554;13.554;2023-05-14T12:12:17;21.90;50.10
23323;DHT22;11833;52.554;13.554;2023-05-14T12:14:44;22.00;49.20
23323;DHT22;11833;52.554;13.554;2023-05-14T12:17:16;22.10;49.10
23323;DHT22;11833;52.554;13.554;2023-05-14T12:19:44;22.20;49.50
23323;DHT22;11833;52.554;13.554;2023-05-14T12:22:13;22.30;47.80
23323;DHT22;11833;52.554;13.554;2023-05-14T12:24:42;22.30;47.40
23323;DHT22;11833;52.554;13.554;2023-05-14T12:27:09;22.50;47.10
23323;DHT22;11833;52.554;13.554;2023-05-14T12:29:36;22.50;47.00
23323;DHT22;11833;52.554;13.554;2023-05-14T12:32:07;22.80;47.30
23323;DHT22;11833;52.554;13.554;2023-05-14T12:34:35;23.10;46.80
23323;DHT22;11833;52.554;13.554;2023-05-14T12:37:01;23.50;45.20
23323;DHT22;11833;52.554;13.554;2023-05-14T12:39:31;23.90;44.00
23323;DHT22;11833;52.554;13.554;2023-05-14T12:41:58;24.30;44.30
23323;DHT22;11833;52.554;13.554;2023-05-14T12:44:23;24.50;42.40
23323;DHT22;11833;52.554;13.554;2023-05-14T12:46:49;24.80;41.40
23323;DHT22;11833;52.554;13.554;2023-05-14T12:49:15;25.10;41.90
23323;DHT22;11833;52.554;13.554;2023-05-14T12:51:40;25.40;41.70
23323;DHT22;11833;52.554;13.554;2023-05-14T12:54:06;25.60;39.30
23323;DHT22;11833;52.554;13.554;2023-05-14T12:56:32;25.60;40.40
23323;DHT22;11833;52.554;13.554;2023-05-14T12:58:58;25.40;40.00
23323;DHT22;11833;52.554;13.554;2023-05-14T13:01:23;25.00;39.80
23323;DHT22;11833;52.554;13.554;2023-05-14T13:03:49;24.70;40.60
23323;DHT22;11833;52.554;13.554;2023-05-14T13:06:15;24.40;40.40
23323;DHT22;11833;52.554;13.554;2023-05-14T13:08:41;24.00;41.40
23323;DHT22;11833;52.554;13.554;2023-05-14T13:11:07;23.70;41.40
23323;DHT22;11833;52.554;13.554;2023-05-14T13:13:33;23.40;42.30
23323;DHT22;11833;52.554;13.554;2023-05-14T13:15:59;23.20;43.00
23323;DHT22;11833;52.554;13.554;2023-05-14T13:18:25;23.10;41.80
23323;DHT22;11833;52.554;13.554;2023-05-14T13:20:51;22.90;41.70
23323;DHT22;11833;52.554;13.554;2023-05-14T13:23:18;22.80;42.90
23323;DHT22;11833;52.554;13.554;2023-05-14T13:25:44;22.70;42.70
23323;DHT22;11833;52.554;13.554;2023-05-14T13:28:10;22.70;42.80
23323;DHT22;11833;52.554;13.554;2023-05-14T13:30:35;22.80;42.00
23323;DHT22;11833;52.554;13.554;2023-05-14T13:33:02;22.80;42.20
23323;DHT22;11833;52.554;13.554;2023-05-14T13:35:28;22.80;42.70
23323;DHT22;11833;52.554;13.554;2023-05-14T13:37:54;22.90;42.20
23323;DHT22;11833;52.554;13.554;2023-05-14T13:40:20;23.00;42.30
23323;DHT22;11833;52.554;13.554;2023-05-14T13:42:46;23.10;42.20
23323;DHT22;11833;52.554;13.554;2023-05-14T13:45:11;23.20;41.40
23323;DHT22;11833;52.554;13.554;2023-05-14T13:47:37;23.30;41.60
23323;DHT22;11833;52.554;13.554;2023-05-14T13:50:03;23.40;41.70
23323;DHT22;11833;52.554;13.554;2023-05-14T13:52:29;23.90;40.80
23323;DHT22;11833;52.554;13.554;2023-05-14T13:54:55;24.30;39.70
23323;DHT22;11833;52.554;13.554;2023-05-14T13:57:21;24.60;39.70
23323;DHT22;11833;52.554;13.554;2023-05-14T13:59:47;25.20;39.90
23323;DHT22;11833;52.554;13.554;2023-05-14T14:02:13;25.80;38.30
23323;DHT22;11833;52.554;13.554;2023-05-14T14:04:39;26.10;38.30
23323;DHT22;11833;52.554;13.554;2023-05-14T14:07:05;26.90;36.50
23323;DHT22;11833;52.554;13.554;2023-05-14T14:09:31;27.30;35.30
23323;DHT22;11833;52.554;13.554;2023-05-14T14:12:04;27.50;35.70
23323;DHT22;11833;52.554;13.554;2023-05-14T14:14:30;28.00;34.70
23323;DHT22;11833;52.554;13.554;2023-05-14T14:16:56;28.60;35.80
23323;DHT22;11833;52.554;13.554;2023-05-14T14:19:22;29.20;34.20
23323;DHT22;11833;52.554;13.554;2023-05-14T14:21:48;29.60;32.20
23323;DHT22;11833;52.554;13.554;2023-05-14T14:24:14;29.70;33.50
23323;DHT22;11833;52.554;13.554;2023-05-14T14:26:39;29.20;32.10
23323;DHT22;11833;52.554;13.554;2023-05-14T14:29:05;28.30;32.40
23323;DHT22;11833;52.554;13.554;2023-05-14T14:31:31;27.70;33.90
23323;DHT22;11833;52.554;13.554;2023-05-14T14:33:56;27.20;33.30
23323;DHT22;11833;52.554;13.554;2023-05-14T14:36:22;26.80;33.30
23323;DHT22;11833;52.554;13.554;2023-05-14T14:38:48;26.50;36.10
23323;DHT22;11833;52.554;13.554;2023-05-14T14:41:13;26.00;35.00
23323;DHT22;11833;52.554;13.554;2023-05-14T14:43:39;25.80;35.90
23323;DHT22;11833;52.554;13.554;2023-05-14T14:46:05;25.80;35.70
23323;DHT22;11833;52.554;13.554;2023-05-14T14:48:34;25.60;36.50
23323;DHT22;11833;52.554;13.554;2023-05-14T14:51:07;25.40;35.60
23323;DHT22;11833;52.554;13.554;2023-05-14T14:53:34;25.20;37.70
23323;DHT22;11833;52.554;13.554;2023-05-14T14:56:01;25.00;37.00
23323;DHT22;11833;52.554;13.554;2023-05-14T14:58:27;24.80;38.10
23323;DHT22;11833;52.554;13.554;2023-05-14T15:00:55;24.70;39.10
23323;DHT22;11833;52.554;13.554;2023-05-14T15:03:23;24.50;38.40
23323;DHT22;11833;52.554;13.554;2023-05-14T15:05:49;24.20;39.20
23323;DHT22;11833;52.554;13.554;2023-05-14T15:08:17;24.00;39.10
23323;DHT22;11833;52.554;13.554;2023-05-14T15:10:43;23.80;40.00
23323;DHT22;11833;52.554;13.554;2023-05-14T15:13:10;23.70;39.40
23323;DHT22;11833;52.554;13.554;2023-05-14T15:15:36;23.50;40.10
23323;DHT22;11833;52.554;13.554;2023-05-14T15:18:03;23.30;40.00
23323;DHT22;11833;52.554;13.554;2023-05-14T15:20:29;23.30;40.10